createdAt,value
2018-12-16T00:03:52.958Z,22.67
2018-12-16T00:09:03.612Z,24.20
2018-12-16T00:14:13.066Z,17.40
2018-12-16T00:19:22.667Z,17.37
2018-12-16T00:24:32.272Z,22.47
2018-12-16T00:29:41.796Z,20.27
2018-12-16T00:34:50.864Z,22.47
2018-12-16T00:40:00.154Z,24.90
2018-12-16T00:45:09.776Z,24.67
2018-12-16T00:50:19.159Z,19.33
2018-12-16T00:55:28.526Z,25.50
2018-12-16T01:00:37.749Z,17.23
2018-12-16T01:05:47.138Z,24.70
2018-12-16T01:10:56.590Z,23.90
2018-12-16T01:16:05.929Z,26.57
2018-12-16T01:21:15.557Z,25.93
2018-12-16T01:26:24.937Z,24.73
2018-12-16T01:31:34.319Z,18.00
2018-12-16T01:36:43.642Z,21.37
2018-12-16T01:41:53.058Z,27.53
2018-12-16T01:47:02.678Z,23.90
2018-12-16T01:52:11.902Z,23.03
2018-12-16T01:57:21.183Z,27.73
2018-12-16T02:02:30.547Z,20.70
2018-12-16T02:07:40.086Z,28.03
2018-12-16T02:12:49.709Z,25.73
2018-12-16T02:17:59.277Z,22.17
2018-12-16T02:23:08.658Z,37.87
2018-12-16T02:28:18.266Z,33.33
2018-12-16T02:33:27.704Z,31.93
2018-12-16T02:38:37.082Z,38.80
2018-12-16T02:43:46.785Z,31.97
2018-12-16T02:48:56.307Z,26.33
2018-12-16T02:54:05.810Z,25.60
2018-12-16T02:59:15.334Z,27.03
2018-12-16T03:04:24.696Z,22.23
2018-12-16T03:09:34.350Z,31.07
2018-12-16T03:14:43.876Z,28.00
2018-12-16T03:19:53.553Z,27.77
2018-12-16T03:25:03.175Z,26.60
2018-12-16T03:30:12.756Z,31.90
2018-12-16T03:35:22.269Z,26.13
2018-12-16T03:40:31.661Z,30.33
2018-12-16T03:45:41.163Z,26.57
2018-12-16T03:50:50.517Z,33.77
2018-12-16T03:55:59.865Z,35.40
2018-12-16T04:01:09.225Z,31.33
2018-12-16T04:06:18.804Z,36.13
2018-12-16T04:11:28.211Z,26.20
2018-12-16T04:16:37.611Z,33.70
2018-12-16T04:21:46.991Z,31.80
2018-12-16T04:26:56.406Z,30.53
2018-12-16T04:32:05.545Z,34.67
2018-12-16T04:37:15.104Z,30.43
2018-12-16T04:42:24.225Z,20.00
2018-12-16T04:47:34.205Z,32.13
2018-12-16T04:52:43.409Z,35.97
2018-12-16T04:57:52.891Z,29.67
2018-12-16T05:03:02.373Z,35.50
2018-12-16T05:08:11.694Z,31.30
2018-12-16T05:13:21.147Z,30.33
2018-12-16T05:18:30.521Z,32.33
2018-12-16T05:23:42.071Z,32.07
2018-12-16T05:28:51.332Z,33.23
2018-12-16T05:34:00.573Z,34.30
2018-12-16T05:39:09.981Z,36.63
2018-12-16T05:44:19.385Z,25.70
2018-12-16T05:49:28.770Z,31.00
2018-12-16T05:54:38.202Z,29.83
2018-12-16T05:59:47.586Z,31.97
2018-12-16T06:04:57.178Z,30.13
2018-12-16T06:10:07.026Z,35.43
2018-12-16T06:15:16.571Z,30.07
2018-12-16T06:20:26.143Z,33.83
2018-12-16T06:25:35.514Z,34.27
2018-12-16T06:30:45.136Z,36.00
2018-12-16T06:35:54.630Z,29.47
2018-12-16T06:41:04.377Z,29.57
2018-12-16T06:46:13.855Z,27.63
2018-12-16T06:51:23.183Z,33.13
2018-12-16T06:56:32.551Z,36.70
2018-12-16T07:01:41.926Z,30.03
2018-12-16T07:06:51.433Z,35.20
2018-12-16T07:12:00.851Z,38.83
2018-12-16T07:17:10.222Z,34.87
2018-12-16T07:22:19.556Z,29.03
2018-12-16T07:27:29.110Z,27.80
2018-12-16T07:32:38.749Z,19.57
2018-12-16T07:37:49.180Z,30.57
2018-12-16T07:42:58.565Z,27.97
2018-12-16T07:48:08.186Z,33.00
2018-12-16T07:53:17.832Z,27.57
2018-12-16T07:58:27.504Z,30.70
2018-12-16T08:03:37.103Z,28.57
2018-12-16T08:08:46.785Z,34.97
2018-12-16T08:13:56.234Z,30.63
2018-12-16T08:19:07.202Z,29.17
2018-12-16T08:24:22.910Z,32.87
2018-12-16T08:29:28.015Z,28.23
2018-12-16T08:34:37.490Z,38.13
2018-12-16T08:39:46.919Z,38.27
2018-12-16T08:44:56.169Z,34.07
2018-12-16T08:50:06.710Z,33.33
2018-12-16T08:55:16.263Z,28.83
2018-12-16T09:00:25.843Z,27.07
2018-12-16T09:05:35.576Z,38.00
2018-12-16T09:10:45.315Z,40.30
2018-12-16T09:15:54.782Z,36.43
2018-12-16T09:21:04.236Z,43.43
2018-12-16T09:26:13.968Z,43.13
2018-12-16T09:31:23.482Z,41.17
2018-12-16T09:36:33.137Z,37.30
2018-12-16T09:41:42.672Z,31.97
2018-12-16T09:46:52.170Z,39.33
2018-12-16T09:52:01.687Z,40.27
2018-12-16T09:57:11.278Z,38.13
2018-12-16T10:02:20.710Z,43.43
2018-12-16T10:07:30.178Z,36.03
2018-12-16T10:12:39.639Z,34.97
2018-12-16T10:17:49.786Z,38.30
2018-12-16T10:22:59.830Z,45.63
2018-12-16T10:28:09.530Z,42.00
2018-12-16T10:33:18.816Z,40.70
2018-12-16T10:38:28.053Z,33.27
2018-12-16T10:43:37.566Z,31.17
2018-12-16T10:48:47.122Z,41.00
2018-12-16T10:53:56.756Z,43.37
2018-12-16T10:59:06.233Z,34.93
2018-12-16T11:04:15.609Z,39.93
2018-12-16T11:09:25.137Z,41.43
2018-12-16T11:14:34.221Z,30.07
2018-12-16T11:19:43.574Z,42.77
2018-12-16T11:24:52.939Z,41.80
2018-12-16T11:30:02.491Z,46.07
2018-12-16T11:35:12.067Z,45.40
2018-12-16T11:40:21.613Z,38.53
2018-12-16T11:45:30.946Z,37.47
2018-12-16T11:50:40.426Z,41.77
2018-12-16T11:55:50.102Z,37.90
2018-12-16T12:00:59.851Z,41.63
2018-12-16T12:06:09.349Z,46.77
2018-12-16T12:11:18.818Z,44.80
2018-12-16T12:16:28.324Z,46.63
2018-12-16T12:21:37.775Z,48.13
2018-12-16T12:26:47.255Z,44.07
2018-12-16T12:31:56.695Z,35.60
2018-12-16T12:37:06.422Z,36.87
2018-12-16T12:42:15.525Z,48.47
2018-12-16T12:47:25.039Z,42.67
2018-12-16T12:52:34.570Z,46.80
2018-12-16T12:57:44.125Z,36.50
2018-12-16T13:02:55.777Z,43.97
2018-12-16T13:08:05.490Z,44.73
2018-12-16T13:13:15.844Z,38.70
2018-12-16T13:18:26.627Z,43.33
2018-12-16T13:23:35.977Z,42.43
2018-12-16T13:28:45.757Z,35.47
2018-12-16T13:33:55.206Z,44.87
2018-12-16T13:39:06.914Z,38.50
2018-12-16T13:44:16.434Z,38.87
2018-12-16T13:49:26.121Z,43.93
2018-12-16T13:54:35.521Z,47.07
2018-12-16T13:59:45.004Z,47.07
2018-12-16T14:04:54.549Z,38.43
2018-12-16T14:10:03.969Z,40.20
2018-12-16T14:15:13.496Z,39.27
2018-12-16T14:20:22.897Z,42.80
2018-12-16T14:25:32.481Z,40.23
2018-12-16T14:30:42.144Z,29.90
2018-12-16T14:35:51.777Z,32.03
2018-12-16T14:41:01.087Z,37.37
2018-12-16T14:46:10.651Z,41.23
2018-12-16T14:51:20.822Z,36.63
2018-12-16T14:56:30.341Z,37.63
2018-12-16T15:01:39.661Z,40.97
2018-12-16T15:06:49.061Z,39.07
2018-12-16T15:11:58.605Z,36.07
2018-12-16T15:17:08.243Z,37.93
2018-12-16T15:22:17.673Z,38.23
2018-12-16T15:27:27.101Z,32.23
2018-12-16T15:32:36.493Z,37.37
2018-12-16T15:37:45.867Z,38.30
2018-12-16T15:42:55.242Z,37.40
2018-12-16T15:48:04.637Z,39.73
2018-12-16T15:53:13.990Z,38.23
2018-12-16T15:58:23.507Z,34.87
2018-12-16T16:03:33.030Z,40.10
2018-12-16T16:08:42.606Z,38.57
2018-12-16T16:13:52.005Z,34.87
2018-12-16T16:19:01.397Z,39.10
2018-12-16T16:24:11.001Z,46.37
2018-12-16T16:29:20.369Z,43.63
2018-12-16T16:34:29.709Z,36.90
2018-12-16T16:39:39.073Z,31.80
2018-12-16T16:44:48.489Z,28.93
2018-12-16T16:49:57.873Z,41.17
2018-12-16T16:55:08.515Z,44.33
2018-12-16T17:00:17.858Z,37.77
2018-12-16T17:05:27.525Z,38.43
2018-12-16T17:10:37.075Z,41.27
2018-12-16T17:15:46.514Z,41.67
2018-12-16T17:20:56.049Z,33.27
2018-12-16T17:26:05.594Z,38.30
2018-12-16T17:31:15.282Z,33.23
2018-12-16T17:36:24.985Z,39.10
2018-12-16T17:41:34.399Z,38.50
2018-12-16T17:46:43.769Z,40.13
2018-12-16T17:51:53.170Z,36.80
2018-12-16T17:57:02.582Z,29.60
2018-12-16T18:02:12.006Z,32.90
2018-12-16T18:07:22.483Z,29.30
2018-12-16T18:12:31.606Z,34.23
2018-12-16T18:17:41.249Z,38.53
2018-12-16T18:22:50.773Z,39.23
2018-12-16T18:28:00.218Z,42.77
2018-12-16T18:33:10.153Z,43.17
2018-12-16T18:38:19.699Z,25.10
2018-12-16T18:43:29.084Z,34.83
2018-12-16T18:48:38.477Z,31.87
2018-12-16T18:53:47.872Z,36.30
2018-12-16T18:58:57.822Z,39.27
2018-12-16T19:04:07.211Z,36.87
2018-12-16T19:09:16.809Z,40.93
2018-12-16T19:14:26.380Z,32.37
2018-12-16T19:19:35.924Z,38.20
2018-12-16T19:24:45.444Z,35.17
2018-12-16T19:29:54.785Z,36.93
2018-12-16T19:35:06.584Z,38.13
2018-12-16T19:40:15.977Z,34.43
2018-12-16T19:45:25.468Z,39.20
2018-12-16T19:50:34.978Z,33.57
2018-12-16T19:55:44.981Z,35.30
2018-12-16T20:00:54.338Z,34.27
2018-12-16T20:06:09.193Z,30.13
2018-12-16T20:11:18.549Z,31.00
2018-12-16T20:16:28.227Z,34.67
2018-12-16T20:21:37.831Z,28.03
2018-12-16T20:26:47.211Z,30.10
2018-12-16T20:31:57.071Z,32.07
2018-12-16T20:37:07.093Z,25.03
2018-12-16T20:42:16.696Z,28.37
2018-12-16T20:47:26.303Z,28.80
2018-12-16T20:52:36.785Z,31.73
2018-12-16T20:57:46.449Z,20.90
2018-12-16T21:02:55.903Z,28.07
2018-12-16T21:08:05.305Z,31.73
2018-12-16T21:13:20.234Z,25.97
2018-12-16T21:18:30.471Z,23.97
2018-12-16T21:23:40.181Z,26.67
2018-12-16T21:28:49.709Z,22.37
2018-12-16T21:33:59.378Z,21.20
2018-12-16T21:39:09.091Z,24.63
2018-12-16T21:44:18.542Z,29.53
2018-12-16T21:49:28.050Z,25.77
2018-12-16T21:54:37.589Z,21.03
2018-12-16T21:59:47.505Z,27.73
2018-12-16T22:04:57.150Z,22.97
2018-12-16T22:10:06.972Z,25.93
2018-12-16T22:15:16.457Z,26.13
2018-12-16T22:20:26.034Z,25.83
2018-12-16T22:25:35.550Z,20.67
2018-12-16T22:30:45.304Z,23.30
2018-12-16T22:35:54.854Z,19.97
2018-12-16T22:41:04.437Z,23.57
2018-12-16T22:46:14.306Z,22.80
2018-12-16T22:51:23.837Z,18.40
2018-12-16T22:56:33.217Z,20.53
2018-12-16T23:01:42.614Z,17.77
2018-12-16T23:06:51.998Z,23.07
2018-12-16T23:12:01.515Z,22.53
2018-12-16T23:17:11.090Z,24.13
2018-12-16T23:22:20.525Z,21.10
2018-12-16T23:27:30.014Z,21.50
2018-12-16T23:32:39.466Z,21.87
2018-12-16T23:37:48.953Z,18.33
2018-12-16T23:42:58.334Z,15.23
2018-12-16T23:48:07.694Z,11.87
2018-12-16T23:53:17.266Z,14.23
2018-12-16T23:58:26.763Z,15.67
